My webcam  My webcam


Besök vår andra vädersida:

Template documentation
and downloads

And another site



Nearby METAR Reports

   
ESOE - Orebro (private), Sweden
Distance from station: SSV 25 km
Updated: 23-10-2020 12:50
Mulet  
Mulet  
   Vind: Nord 2.1 m/s
Vind: Nord 2.1 m/s
Temperature: 5°C
Wind Chill: 3°C
Daggpunkt: 1°C
Luftfuktighet: 76%
Barometer: 1004 hPa
Moln: Mulet
Visibility: Mer än 10 km
Cloud details: Mulet 1200 ft
ESOE 231050Z AUTO 01004KT 9999 OVC012/// 05/01 Q1004
ESSP - Norrkoping/Kungs, Sweden
Distance from station: SO 114 km
Updated: 23-10-2020 12:50
Mestadels molningt  
Mestadels molningt  
   Vind: NNV 3.6 m/s
Vind: NNV 3.6 m/s
Temperature: 6°C
Wind Chill: 3°C
Daggpunkt: 3°C
Luftfuktighet: 81%
Barometer: 1004 hPa
Moln: Mestadels molningt
Visibility: Mer än 10 km
Cloud details: Mestadels molningt 1000 ft
ESSP 231050Z 33007KT 9999 BKN010 06/03 Q1004
ESSB - Stockholm/Bromma, Sweden
Distance from station: O 156 km
Updated: 23-10-2020 12:50
Mestadels molningt  
Mestadels molningt  
   Vind: NNV 4.6 m/s
Vind: NNV 4.6 m/s
Temperature: 4°C
Wind Chill: 0°C
Daggpunkt: 2°C
Luftfuktighet: 87%
Barometer: 1002 hPa
Moln: Mestadels molningt
Visibility: Mer än 10 km
Cloud details: Mestadels molningt 800 ft
ESSB 231050Z 34009KT 310V020 9999 BKN008 04/02 Q1002
ESSV - Visby Airport, Sweden
Distance from station: SO 269 km
Updated: 23-10-2020 12:50
Mestadels molningt  
Mestadels molningt  
   Vind: Väst 7.7 m/s
Vind: Väst 7.7 m/s
Temperature: 11°C
Daggpunkt: 8°C
Luftfuktighet: 82%
Barometer: 1003 hPa
Moln: Mestadels molningt
Visibility: Mer än 10 km
Cloud details: Mestadels molningt 2900 ft
ESSV 231050Z 26015KT 9999 BKN029 11/08 Q1003
ESNZ - Ostersund/Froson, Sweden
Distance from station: SSV 1 km
Updated: 23-10-2020 12:50
Delvis molnigt  
Delvis molnigt  
   Vind: VNV 7.2 m/s
Vind: VNV 7.2 m/s
Temperature: 1°C
Wind Chill: -4°C
Daggpunkt: -2°C
Luftfuktighet: 81%
Barometer: 1000 hPa
Moln: Delvis molnigt
Visibility: Mer än 10 km
Cloud details: Glesa moln 1400 ft,
Delvis molnigt 1600 ft
ESNZ 231050Z 29014KT 9999 FEW014 SCT016 01/M02 Q1000
ESPA - Kallax/Lulea (af, Sweden
Distance from station: SSO 7 km
Updated: 23-10-2020 12:50
Klart  
Klart  
   Vind: Väst 2.1 m/s
Vind: Väst 2.1 m/s
Temperature: -2°C
Wind Chill: -5°C
Daggpunkt: -5°C
Luftfuktighet: 80%
Barometer: 994 hPa
Visibility: Mer än 10 km
Cloud details: Klart
ESPA 231050Z 28004KT CAVOK M02/M05 Q0994

Script developed by  Saratoga-weather.org Adapted for the template by  Weerstation Leuven